METAR πλησιέστερων αεροδρομίων

 

LGIR - Iraklion Airport
Απόσταση από το σταθμό: ΒΔ 62km
Ενημερώθηκε: 17/01/2021 02:20
Συννεφιά
Συννεφιά
 Ανεμος από ΔΒΔ
Ανεμος: ΔΒΔ 20 km/h
Θερμοκρασία: 10°C
Αίσθηση Ψύχους: 7°C
Σημείο Δρόσου: 8°C
Υγρασία: 88%
Βαρόμετρο: 1008 hPa
Νέφη: Συννεφιά
Ορατότητα: 10 km
Λεπτομέρειες νεφών: Λίγα σύννεφα 549 m
Σχεδόν νεφελώδης 762 m
Συννεφιά 2134 m
2021/01/17 00:20 LGIR 170020Z 30011KT 9999 FEW018 BKN025 OVC070 10/08 Q1008 NOSIG
LGSA - Souda/Chania Airport
Απόσταση από το σταθμό: ΔΒΔ 154km
Ενημερώθηκε: 17/01/2021 02:20
Σχεδόν νεφελώδης
Σχεδόν νεφελώδης
 Ανεμος από calm
Ανεμος: Απνοια
Θερμοκρασία: 8°C
Σημείο Δρόσου: 8°C
Υγρασία: 100%
Βαρόμετρο: 1009 hPa
Νέφη: Σχεδόν νεφελώδης
Ορατότητα: 8 km
Λεπτομέρειες νεφών: Σχεδόν νεφελώδης 610 m
Σχεδόν νεφελώδης 2438 m
2021/01/17 00:20 LGSA 170020Z 00000KT 8000 BKN020 BKN080 08/08 Q1009